sensor_id;sensor_type;location;lat;lon;timestamp;P1;durP1;ratioP1;P2;durP2;ratioP2
30677;SDS011;17437;47.188;8.896;2023-02-23T00:01:28;30.88;;;17.20;;
30677;SDS011;17437;47.188;8.896;2023-02-23T00:04:00;29.87;;;18.37;;
30677;SDS011;17437;47.188;8.896;2023-02-23T00:06:33;34.95;;;22.25;;
30677;SDS011;17437;47.188;8.896;2023-02-23T00:09:06;33.25;;;20.37;;
30677;SDS011;17437;47.188;8.896;2023-02-23T00:11:40;27.27;;;17.95;;
30677;SDS011;17437;47.188;8.896;2023-02-23T00:14:12;30.62;;;18.82;;
30677;SDS011;17437;47.188;8.896;2023-02-23T00:16:43;31.40;;;21.57;;
30677;SDS011;17437;47.188;8.896;2023-02-23T00:19:15;27.90;;;18.82;;
30677;SDS011;17437;47.188;8.896;2023-02-23T00:21:46;29.95;;;20.02;;
30677;SDS011;17437;47.188;8.896;2023-02-23T00:24:19;33.58;;;19.82;;
30677;SDS011;17437;47.188;8.896;2023-02-23T00:26:51;31.85;;;18.42;;
30677;SDS011;17437;47.188;8.896;2023-02-23T00:29:23;32.13;;;18.90;;
30677;SDS011;17437;47.188;8.896;2023-02-23T00:31:55;38.33;;;22.62;;
30677;SDS011;17437;47.188;8.896;2023-02-23T00:34:27;39.20;;;23.62;;
30677;SDS011;17437;47.188;8.896;2023-02-23T00:36:59;35.68;;;21.45;;
30677;SDS011;17437;47.188;8.896;2023-02-23T00:39:30;37.73;;;20.55;;
30677;SDS011;17437;47.188;8.896;2023-02-23T00:42:02;33.45;;;21.40;;
30677;SDS011;17437;47.188;8.896;2023-02-23T00:44:35;31.20;;;19.85;;
30677;SDS011;17437;47.188;8.896;2023-02-23T00:47:08;38.85;;;22.42;;
30677;SDS011;17437;47.188;8.896;2023-02-23T00:49:40;41.92;;;23.77;;
30677;SDS011;17437;47.188;8.896;2023-02-23T00:52:13;35.52;;;22.52;;
30677;SDS011;17437;47.188;8.896;2023-02-23T00:54:44;34.20;;;22.50;;
30677;SDS011;17437;47.188;8.896;2023-02-23T00:57:16;38.58;;;23.47;;
30677;SDS011;17437;47.188;8.896;2023-02-23T00:59:47;37.08;;;23.77;;
30677;SDS011;17437;47.188;8.896;2023-02-23T01:02:19;36.70;;;22.52;;
30677;SDS011;17437;47.188;8.896;2023-02-23T01:04:50;35.28;;;21.97;;
30677;SDS011;17437;47.188;8.896;2023-02-23T01:07:22;36.15;;;22.35;;
30677;SDS011;17437;47.188;8.896;2023-02-23T01:09:54;36.58;;;23.47;;
30677;SDS011;17437;47.188;8.896;2023-02-23T01:12:26;41.28;;;25.17;;
30677;SDS011;17437;47.188;8.896;2023-02-23T01:14:57;44.67;;;26.17;;
30677;SDS011;17437;47.188;8.896;2023-02-23T01:17:30;41.13;;;23.83;;
30677;SDS011;17437;47.188;8.896;2023-02-23T01:20:02;42.30;;;23.85;;
30677;SDS011;17437;47.188;8.896;2023-02-23T01:22:41;41.18;;;24.72;;
30677;SDS011;17437;47.188;8.896;2023-02-23T01:25:14;54.70;;;26.55;;
30677;SDS011;17437;47.188;8.896;2023-02-23T01:27:47;39.25;;;26.00;;
30677;SDS011;17437;47.188;8.896;2023-02-23T01:30:20;38.30;;;25.08;;
30677;SDS011;17437;47.188;8.896;2023-02-23T01:32:52;41.15;;;24.57;;
30677;SDS011;17437;47.188;8.896;2023-02-23T01:35:26;42.78;;;26.73;;
30677;SDS011;17437;47.188;8.896;2023-02-23T01:37:58;39.58;;;26.20;;
30677;SDS011;17437;47.188;8.896;2023-02-23T01:40:30;44.70;;;27.05;;
30677;SDS011;17437;47.188;8.896;2023-02-23T01:43:12;43.20;;;26.55;;
30677;SDS011;17437;47.188;8.896;2023-02-23T01:45:45;43.75;;;22.48;;
30677;SDS011;17437;47.188;8.896;2023-02-23T01:48:17;52.55;;;28.38;;
30677;SDS011;17437;47.188;8.896;2023-02-23T01:50:52;45.85;;;26.95;;
30677;SDS011;17437;47.188;8.896;2023-02-23T01:53:28;53.13;;;29.60;;
30677;SDS011;17437;47.188;8.896;2023-02-23T01:56:02;57.10;;;34.20;;
30677;SDS011;17437;47.188;8.896;2023-02-23T01:58:40;60.98;;;35.75;;
30677;SDS011;17437;47.188;8.896;2023-02-23T02:01:13;67.10;;;37.05;;
30677;SDS011;17437;47.188;8.896;2023-02-23T02:03:47;68.28;;;40.38;;
30677;SDS011;17437;47.188;8.896;2023-02-23T02:06:22;66.80;;;36.80;;
30677;SDS011;17437;47.188;8.896;2023-02-23T02:08:58;55.48;;;32.73;;
30677;SDS011;17437;47.188;8.896;2023-02-23T02:11:34;61.30;;;37.15;;
30677;SDS011;17437;47.188;8.896;2023-02-23T02:14:07;62.88;;;35.52;;
30677;SDS011;17437;47.188;8.896;2023-02-23T02:16:44;64.77;;;35.35;;
30677;SDS011;17437;47.188;8.896;2023-02-23T02:26:01;61.83;;;36.08;;
30677;SDS011;17437;47.188;8.896;2023-02-23T02:32:07;59.13;;;35.28;;
30677;SDS011;17437;47.188;8.896;2023-02-23T02:37:57;62.17;;;36.35;;
30677;SDS011;17437;47.188;8.896;2023-02-23T02:40:36;75.40;;;37.33;;
30677;SDS011;17437;47.188;8.896;2023-02-23T02:43:15;71.22;;;36.30;;
30677;SDS011;17437;47.188;8.896;2023-02-23T02:45:49;60.23;;;33.80;;
30677;SDS011;17437;47.188;8.896;2023-02-23T02:48:28;71.72;;;37.73;;
30677;SDS011;17437;47.188;8.896;2023-02-23T02:51:05;66.47;;;37.08;;
30677;SDS011;17437;47.188;8.896;2023-02-23T02:53:43;62.48;;;35.35;;
30677;SDS011;17437;47.188;8.896;2023-02-23T02:56:17;61.58;;;37.60;;
30677;SDS011;17437;47.188;8.896;2023-02-23T02:58:51;60.65;;;35.30;;
30677;SDS011;17437;47.188;8.896;2023-02-23T03:01:23;56.33;;;34.88;;
30677;SDS011;17437;47.188;8.896;2023-02-23T03:04:19;63.58;;;36.80;;
30677;SDS011;17437;47.188;8.896;2023-02-23T03:07:13;65.32;;;35.50;;
30677;SDS011;17437;47.188;8.896;2023-02-23T03:10:05;68.25;;;37.48;;
30677;SDS011;17437;47.188;8.896;2023-02-23T03:12:58;67.87;;;38.58;;
30677;SDS011;17437;47.188;8.896;2023-02-23T03:15:53;65.85;;;34.38;;
30677;SDS011;17437;47.188;8.896;2023-02-23T03:18:48;66.97;;;36.10;;
30677;SDS011;17437;47.188;8.896;2023-02-23T03:21:43;68.57;;;35.20;;
30677;SDS011;17437;47.188;8.896;2023-02-23T03:24:36;64.67;;;35.13;;
30677;SDS011;17437;47.188;8.896;2023-02-23T03:27:29;60.05;;;33.38;;
30677;SDS011;17437;47.188;8.896;2023-02-23T03:30:22;66.70;;;37.80;;
30677;SDS011;17437;47.188;8.896;2023-02-23T03:33:15;58.38;;;32.67;;
30677;SDS011;17437;47.188;8.896;2023-02-23T03:36:07;59.55;;;33.58;;
30677;SDS011;17437;47.188;8.896;2023-02-23T03:39:00;62.73;;;32.00;;
30677;SDS011;17437;47.188;8.896;2023-02-23T03:41:50;63.02;;;31.82;;
30677;SDS011;17437;47.188;8.896;2023-02-23T03:44:42;62.10;;;33.95;;
30677;SDS011;17437;47.188;8.896;2023-02-23T03:47:34;54.60;;;31.40;;
30677;SDS011;17437;47.188;8.896;2023-02-23T03:50:27;59.15;;;31.87;;
30677;SDS011;17437;47.188;8.896;2023-02-23T03:53:20;57.70;;;33.45;;
30677;SDS011;17437;47.188;8.896;2023-02-23T03:56:11;54.08;;;31.75;;
30677;SDS011;17437;47.188;8.896;2023-02-23T03:59:03;54.15;;;31.07;;
30677;SDS011;17437;47.188;8.896;2023-02-23T04:01:55;48.63;;;29.23;;
30677;SDS011;17437;47.188;8.896;2023-02-23T04:04:46;52.03;;;29.37;;
30677;SDS011;17437;47.188;8.896;2023-02-23T04:07:36;51.48;;;28.62;;
30677;SDS011;17437;47.188;8.896;2023-02-23T04:10:27;60.38;;;31.33;;
30677;SDS011;17437;47.188;8.896;2023-02-23T04:13:21;52.88;;;30.62;;
30677;SDS011;17437;47.188;8.896;2023-02-23T04:15:54;43.65;;;27.37;;
30677;SDS011;17437;47.188;8.896;2023-02-23T04:18:28;41.70;;;25.48;;
30677;SDS011;17437;47.188;8.896;2023-02-23T04:21:02;36.28;;;25.00;;
30677;SDS011;17437;47.188;8.896;2023-02-23T04:23:35;43.92;;;27.62;;
30677;SDS011;17437;47.188;8.896;2023-02-23T04:26:09;39.18;;;22.77;;
30677;SDS011;17437;47.188;8.896;2023-02-23T04:28:40;42.58;;;28.25;;
30677;SDS011;17437;47.188;8.896;2023-02-23T04:31:12;45.23;;;26.30;;
30677;SDS011;17437;47.188;8.896;2023-02-23T04:33:46;43.30;;;26.25;;
30677;SDS011;17437;47.188;8.896;2023-02-23T04:36:17;48.58;;;27.15;;
30677;SDS011;17437;47.188;8.896;2023-02-23T04:38:49;43.87;;;26.05;;
30677;SDS011;17437;47.188;8.896;2023-02-23T04:41:20;43.90;;;28.87;;
30677;SDS011;17437;47.188;8.896;2023-02-23T04:43:51;49.75;;;28.00;;
30677;SDS011;17437;47.188;8.896;2023-02-23T04:46:23;49.42;;;25.88;;
30677;SDS011;17437;47.188;8.896;2023-02-23T04:48:54;43.28;;;24.60;;
30677;SDS011;17437;47.188;8.896;2023-02-23T04:51:26;38.42;;;25.50;;
30677;SDS011;17437;47.188;8.896;2023-02-23T04:54:00;51.85;;;25.57;;
30677;SDS011;17437;47.188;8.896;2023-02-23T04:56:31;40.67;;;23.50;;
30677;SDS011;17437;47.188;8.896;2023-02-23T04:59:03;40.15;;;25.37;;
30677;SDS011;17437;47.188;8.896;2023-02-23T05:01:34;44.95;;;24.82;;
30677;SDS011;17437;47.188;8.896;2023-02-23T05:04:06;35.60;;;23.75;;
30677;SDS011;17437;47.188;8.896;2023-02-23T05:06:38;40.38;;;24.95;;
30677;SDS011;17437;47.188;8.896;2023-02-23T05:09:11;43.73;;;24.52;;
30677;SDS011;17437;47.188;8.896;2023-02-23T05:11:42;35.88;;;24.00;;
30677;SDS011;17437;47.188;8.896;2023-02-23T05:14:14;37.73;;;23.07;;
30677;SDS011;17437;47.188;8.896;2023-02-23T05:16:45;37.55;;;25.55;;
30677;SDS011;17437;47.188;8.896;2023-02-23T05:19:17;39.53;;;23.20;;
30677;SDS011;17437;47.188;8.896;2023-02-23T05:21:49;47.35;;;25.48;;
30677;SDS011;17437;47.188;8.896;2023-02-23T05:24:21;45.23;;;27.95;;
30677;SDS011;17437;47.188;8.896;2023-02-23T05:26:53;40.98;;;26.23;;
30677;SDS011;17437;47.188;8.896;2023-02-23T05:29:25;41.45;;;21.80;;
30677;SDS011;17437;47.188;8.896;2023-02-23T05:31:56;37.17;;;22.90;;
30677;SDS011;17437;47.188;8.896;2023-02-23T05:34:28;48.55;;;23.50;;
30677;SDS011;17437;47.188;8.896;2023-02-23T05:37:00;40.35;;;23.00;;
30677;SDS011;17437;47.188;8.896;2023-02-23T05:39:31;38.55;;;21.25;;
30677;SDS011;17437;47.188;8.896;2023-02-23T05:42:03;29.45;;;17.32;;
30677;SDS011;17437;47.188;8.896;2023-02-23T05:44:34;33.25;;;19.50;;
30677;SDS011;17437;47.188;8.896;2023-02-23T05:47:06;36.00;;;19.60;;
30677;SDS011;17437;47.188;8.896;2023-02-23T05:49:38;39.30;;;22.93;;
30677;SDS011;17437;47.188;8.896;2023-02-23T05:52:10;42.50;;;21.85;;
30677;SDS011;17437;47.188;8.896;2023-02-23T05:54:42;39.08;;;21.73;;
30677;SDS011;17437;47.188;8.896;2023-02-23T05:57:14;31.65;;;20.75;;
30677;SDS011;17437;47.188;8.896;2023-02-23T05:59:46;45.58;;;25.30;;
30677;SDS011;17437;47.188;8.896;2023-02-23T06:02:17;31.25;;;19.98;;
30677;SDS011;17437;47.188;8.896;2023-02-23T06:04:48;28.92;;;16.48;;
30677;SDS011;17437;47.188;8.896;2023-02-23T06:07:20;25.62;;;16.60;;
30677;SDS011;17437;47.188;8.896;2023-02-23T06:09:56;26.97;;;16.67;;
30677;SDS011;17437;47.188;8.896;2023-02-23T06:12:28;25.00;;;14.30;;
30677;SDS011;17437;47.188;8.896;2023-02-23T06:15:00;20.48;;;11.70;;
30677;SDS011;17437;47.188;8.896;2023-02-23T06:17:31;10.38;;;8.08;;
30677;SDS011;17437;47.188;8.896;2023-02-23T06:20:03;16.80;;;10.88;;
30677;SDS011;17437;47.188;8.896;2023-02-23T06:22:36;21.93;;;14.60;;
30677;SDS011;17437;47.188;8.896;2023-02-23T06:25:08;23.65;;;16.20;;
30677;SDS011;17437;47.188;8.896;2023-02-23T06:27:41;27.82;;;16.42;;
30677;SDS011;17437;47.188;8.896;2023-02-23T06:30:13;25.05;;;16.55;;
30677;SDS011;17437;47.188;8.896;2023-02-23T06:32:45;35.30;;;21.20;;
30677;SDS011;17437;47.188;8.896;2023-02-23T06:35:17;29.00;;;17.82;;
30677;SDS011;17437;47.188;8.896;2023-02-23T06:37:48;30.80;;;17.67;;
30677;SDS011;17437;47.188;8.896;2023-02-23T06:40:20;37.88;;;21.15;;
30677;SDS011;17437;47.188;8.896;2023-02-23T06:42:51;29.02;;;18.12;;
30677;SDS011;17437;47.188;8.896;2023-02-23T06:45:23;39.78;;;20.55;;
30677;SDS011;17437;47.188;8.896;2023-02-23T06:47:54;30.02;;;18.50;;
30677;SDS011;17437;47.188;8.896;2023-02-23T06:50:26;29.82;;;19.27;;
30677;SDS011;17437;47.188;8.896;2023-02-23T06:52:57;30.60;;;17.95;;
30677;SDS011;17437;47.188;8.896;2023-02-23T06:55:29;30.40;;;17.87;;
30677;SDS011;17437;47.188;8.896;2023-02-23T06:58:01;28.87;;;18.55;;
30677;SDS011;17437;47.188;8.896;2023-02-23T07:00:34;26.30;;;15.78;;
30677;SDS011;17437;47.188;8.896;2023-02-23T07:03:07;21.65;;;15.45;;
30677;SDS011;17437;47.188;8.896;2023-02-23T07:05:39;23.70;;;15.60;;
30677;SDS011;17437;47.188;8.896;2023-02-23T07:08:11;25.80;;;15.25;;
30677;SDS011;17437;47.188;8.896;2023-02-23T07:10:43;27.95;;;15.53;;
30677;SDS011;17437;47.188;8.896;2023-02-23T07:13:15;30.30;;;17.73;;
30677;SDS011;17437;47.188;8.896;2023-02-23T07:15:48;21.57;;;14.03;;
30677;SDS011;17437;47.188;8.896;2023-02-23T07:18:20;24.20;;;14.63;;
30677;SDS011;17437;47.188;8.896;2023-02-23T07:20:51;29.98;;;19.23;;
30677;SDS011;17437;47.188;8.896;2023-02-23T07:23:23;23.27;;;14.93;;
30677;SDS011;17437;47.188;8.896;2023-02-23T07:25:56;18.37;;;13.53;;
30677;SDS011;17437;47.188;8.896;2023-02-23T07:28:28;19.52;;;11.93;;
30677;SDS011;17437;47.188;8.896;2023-02-23T07:31:00;24.23;;;15.85;;
30677;SDS011;17437;47.188;8.896;2023-02-23T07:33:32;20.40;;;12.78;;
30677;SDS011;17437;47.188;8.896;2023-02-23T07:36:04;24.98;;;14.35;;
30677;SDS011;17437;47.188;8.896;2023-02-23T07:38:38;20.12;;;13.48;;
30677;SDS011;17437;47.188;8.896;2023-02-23T07:41:10;23.80;;;13.08;;
30677;SDS011;17437;47.188;8.896;2023-02-23T07:46:24;19.40;;;13.43;;
30677;SDS011;17437;47.188;8.896;2023-02-23T07:48:55;20.12;;;11.80;;
30677;SDS011;17437;47.188;8.896;2023-02-23T07:51:29;23.38;;;14.38;;
30677;SDS011;17437;47.188;8.896;2023-02-23T07:54:01;24.27;;;14.98;;
30677;SDS011;17437;47.188;8.896;2023-02-23T07:56:33;21.68;;;14.58;;
30677;SDS011;17437;47.188;8.896;2023-02-23T07:59:05;21.65;;;15.30;;
30677;SDS011;17437;47.188;8.896;2023-02-23T08:01:36;26.30;;;16.15;;
30677;SDS011;17437;47.188;8.896;2023-02-23T08:04:07;23.62;;;15.80;;
30677;SDS011;17437;47.188;8.896;2023-02-23T08:06:39;21.00;;;14.85;;
30677;SDS011;17437;47.188;8.896;2023-02-23T08:09:11;20.23;;;14.40;;
30677;SDS011;17437;47.188;8.896;2023-02-23T08:11:43;24.25;;;15.60;;
30677;SDS011;17437;47.188;8.896;2023-02-23T08:14:14;25.02;;;15.63;;
30677;SDS011;17437;47.188;8.896;2023-02-23T08:16:47;29.75;;;16.70;;
30677;SDS011;17437;47.188;8.896;2023-02-23T08:19:19;30.25;;;17.05;;
30677;SDS011;17437;47.188;8.896;2023-02-23T08:21:51;23.10;;;14.18;;
30677;SDS011;17437;47.188;8.896;2023-02-23T08:24:24;25.50;;;16.50;;
30677;SDS011;17437;47.188;8.896;2023-02-23T08:26:57;25.82;;;15.72;;
30677;SDS011;17437;47.188;8.896;2023-02-23T08:29:30;24.82;;;16.48;;
30677;SDS011;17437;47.188;8.896;2023-02-23T08:32:03;21.95;;;13.55;;
30677;SDS011;17437;47.188;8.896;2023-02-23T08:34:37;27.67;;;18.07;;
30677;SDS011;17437;47.188;8.896;2023-02-23T08:37:09;20.70;;;13.43;;
30677;SDS011;17437;47.188;8.896;2023-02-23T08:39:40;33.98;;;15.98;;
30677;SDS011;17437;47.188;8.896;2023-02-23T08:42:13;24.57;;;14.00;;
30677;SDS011;17437;47.188;8.896;2023-02-23T08:44:46;22.77;;;14.93;;
30677;SDS011;17437;47.188;8.896;2023-02-23T08:47:17;26.00;;;15.00;;
30677;SDS011;17437;47.188;8.896;2023-02-23T08:49:51;26.70;;;15.50;;
30677;SDS011;17437;47.188;8.896;2023-02-23T08:52:23;22.82;;;16.00;;
30677;SDS011;17437;47.188;8.896;2023-02-23T08:54:55;25.23;;;16.00;;
30677;SDS011;17437;47.188;8.896;2023-02-23T08:57:26;24.12;;;16.77;;
30677;SDS011;17437;47.188;8.896;2023-02-23T09:00:05;20.55;;;15.35;;
30677;SDS011;17437;47.188;8.896;2023-02-23T09:02:45;24.90;;;15.78;;
30677;SDS011;17437;47.188;8.896;2023-02-23T09:05:18;23.73;;;14.95;;
30677;SDS011;17437;47.188;8.896;2023-02-23T09:07:49;22.95;;;16.90;;
30677;SDS011;17437;47.188;8.896;2023-02-23T09:10:22;20.68;;;13.98;;
30677;SDS011;17437;47.188;8.896;2023-02-23T09:15:34;22.10;;;15.40;;
30677;SDS011;17437;47.188;8.896;2023-02-23T09:18:08;21.82;;;14.28;;
30677;SDS011;17437;47.188;8.896;2023-02-23T09:20:42;17.60;;;12.15;;
30677;SDS011;17437;47.188;8.896;2023-02-23T09:23:14;19.90;;;13.45;;
30677;SDS011;17437;47.188;8.896;2023-02-23T09:25:46;25.17;;;13.98;;
30677;SDS011;17437;47.188;8.896;2023-02-23T09:28:18;20.12;;;13.48;;
30677;SDS011;17437;47.188;8.896;2023-02-23T09:30:50;21.48;;;14.60;;
30677;SDS011;17437;47.188;8.896;2023-02-23T09:33:21;21.27;;;13.93;;
30677;SDS011;17437;47.188;8.896;2023-02-23T09:35:54;21.50;;;13.30;;
30677;SDS011;17437;47.188;8.896;2023-02-23T09:38:25;21.07;;;14.03;;
30677;SDS011;17437;47.188;8.896;2023-02-23T09:40:58;17.40;;;13.72;;
30677;SDS011;17437;47.188;8.896;2023-02-23T09:43:30;21.05;;;13.18;;
30677;SDS011;17437;47.188;8.896;2023-02-23T09:46:07;20.62;;;15.28;;
30677;SDS011;17437;47.188;8.896;2023-02-23T09:48:42;22.45;;;13.90;;
30677;SDS011;17437;47.188;8.896;2023-02-23T09:51:15;24.85;;;12.75;;
30677;SDS011;17437;47.188;8.896;2023-02-23T09:53:49;20.15;;;13.45;;
30677;SDS011;17437;47.188;8.896;2023-02-23T09:56:24;21.20;;;13.83;;
30677;SDS011;17437;47.188;8.896;2023-02-23T09:59:00;23.40;;;15.03;;
30677;SDS011;17437;47.188;8.896;2023-02-23T10:01:44;22.42;;;12.98;;
30677;SDS011;17437;47.188;8.896;2023-02-23T10:04:22;17.80;;;13.65;;
30677;SDS011;17437;47.188;8.896;2023-02-23T10:07:04;19.75;;;13.50;;
30677;SDS011;17437;47.188;8.896;2023-02-23T10:09:43;20.12;;;12.40;;
30677;SDS011;17437;47.188;8.896;2023-02-23T10:12:21;16.80;;;11.12;;
30677;SDS011;17437;47.188;8.896;2023-02-23T10:14:57;17.82;;;12.03;;
30677;SDS011;17437;47.188;8.896;2023-02-23T10:17:37;20.80;;;12.98;;
30677;SDS011;17437;47.188;8.896;2023-02-23T10:20:15;17.32;;;13.18;;
30677;SDS011;17437;47.188;8.896;2023-02-23T10:22:50;14.85;;;10.88;;
30677;SDS011;17437;47.188;8.896;2023-02-23T10:25:25;19.10;;;12.63;;
30677;SDS011;17437;47.188;8.896;2023-02-23T10:27:58;17.77;;;12.15;;
30677;SDS011;17437;47.188;8.896;2023-02-23T10:30:32;17.35;;;12.68;;
30677;SDS011;17437;47.188;8.896;2023-02-23T10:33:04;20.48;;;13.58;;
30677;SDS011;17437;47.188;8.896;2023-02-23T10:35:41;16.25;;;10.28;;
30677;SDS011;17437;47.188;8.896;2023-02-23T10:38:14;20.43;;;11.20;;
30677;SDS011;17437;47.188;8.896;2023-02-23T10:40:48;15.40;;;10.35;;
30677;SDS011;17437;47.188;8.896;2023-02-23T10:43:21;17.65;;;11.15;;
30677;SDS011;17437;47.188;8.896;2023-02-23T10:45:53;16.87;;;10.05;;
30677;SDS011;17437;47.188;8.896;2023-02-23T10:48:26;14.47;;;10.40;;
30677;SDS011;17437;47.188;8.896;2023-02-23T10:51:00;19.12;;;10.32;;
30677;SDS011;17437;47.188;8.896;2023-02-23T10:53:33;23.77;;;14.80;;
30677;SDS011;17437;47.188;8.896;2023-02-23T10:56:07;18.40;;;12.05;;
30677;SDS011;17437;47.188;8.896;2023-02-23T10:58:42;14.85;;;10.70;;
30677;SDS011;17437;47.188;8.896;2023-02-23T11:01:21;14.35;;;9.48;;
30677;SDS011;17437;47.188;8.896;2023-02-23T11:04:12;15.38;;;10.20;;
30677;SDS011;17437;47.188;8.896;2023-02-23T11:06:47;16.07;;;10.28;;
30677;SDS011;17437;47.188;8.896;2023-02-23T11:09:22;18.45;;;10.75;;
30677;SDS011;17437;47.188;8.896;2023-02-23T11:11:58;22.62;;;11.55;;
30677;SDS011;17437;47.188;8.896;2023-02-23T11:14:31;20.80;;;12.47;;
30677;SDS011;17437;47.188;8.896;2023-02-23T11:17:03;19.48;;;11.08;;
30677;SDS011;17437;47.188;8.896;2023-02-23T11:19:35;17.30;;;11.93;;
30677;SDS011;17437;47.188;8.896;2023-02-23T11:22:07;16.48;;;11.10;;
30677;SDS011;17437;47.188;8.896;2023-02-23T11:24:49;17.30;;;11.43;;
30677;SDS011;17437;47.188;8.896;2023-02-23T11:27:22;16.70;;;9.88;;
30677;SDS011;17437;47.188;8.896;2023-02-23T11:29:55;23.65;;;13.05;;
30677;SDS011;17437;47.188;8.896;2023-02-23T11:32:30;16.60;;;10.03;;
30677;SDS011;17437;47.188;8.896;2023-02-23T11:35:11;13.70;;;9.45;;
30677;SDS011;17437;47.188;8.896;2023-02-23T11:37:45;13.88;;;9.40;;
30677;SDS011;17437;47.188;8.896;2023-02-23T11:40:18;16.60;;;9.90;;
30677;SDS011;17437;47.188;8.896;2023-02-23T11:42:52;15.75;;;9.93;;
30677;SDS011;17437;47.188;8.896;2023-02-23T11:45:25;14.28;;;11.12;;
30677;SDS011;17437;47.188;8.896;2023-02-23T11:48:00;15.68;;;10.93;;
30677;SDS011;17437;47.188;8.896;2023-02-23T11:50:34;13.00;;;9.58;;
30677;SDS011;17437;47.188;8.896;2023-02-23T11:53:11;12.68;;;9.38;;
30677;SDS011;17437;47.188;8.896;2023-02-23T11:55:46;14.45;;;10.13;;
30677;SDS011;17437;47.188;8.896;2023-02-23T11:58:22;13.88;;;9.88;;
30677;SDS011;17437;47.188;8.896;2023-02-23T12:00:56;15.40;;;9.05;;
30677;SDS011;17437;47.188;8.896;2023-02-23T12:03:31;18.10;;;10.55;;
30677;SDS011;17437;47.188;8.896;2023-02-23T12:06:03;11.55;;;8.88;;
30677;SDS011;17437;47.188;8.896;2023-02-23T12:08:38;12.07;;;8.50;;
30677;SDS011;17437;47.188;8.896;2023-02-23T12:11:12;11.48;;;7.45;;
30677;SDS011;17437;47.188;8.896;2023-02-23T12:13:46;13.70;;;7.47;;
30677;SDS011;17437;47.188;8.896;2023-02-23T12:16:21;17.10;;;7.62;;
30677;SDS011;17437;47.188;8.896;2023-02-23T12:18:56;15.00;;;8.23;;
30677;SDS011;17437;47.188;8.896;2023-02-23T12:21:30;9.00;;;6.35;;
30677;SDS011;17437;47.188;8.896;2023-02-23T12:24:09;7.72;;;6.10;;
30677;SDS011;17437;47.188;8.896;2023-02-23T12:26:43;11.50;;;6.55;;
30677;SDS011;17437;47.188;8.896;2023-02-23T12:29:20;13.80;;;6.53;;
30677;SDS011;17437;47.188;8.896;2023-02-23T12:31:56;8.60;;;5.95;;
30677;SDS011;17437;47.188;8.896;2023-02-23T12:34:32;11.53;;;5.47;;
30677;SDS011;17437;47.188;8.896;2023-02-23T12:37:19;6.20;;;4.92;;
30677;SDS011;17437;47.188;8.896;2023-02-23T12:39:48;16.67;;;6.25;;
30677;SDS011;17437;47.188;8.896;2023-02-23T12:42:22;9.70;;;5.85;;
30677;SDS011;17437;47.188;8.896;2023-02-23T12:44:57;10.38;;;5.67;;
30677;SDS011;17437;47.188;8.896;2023-02-23T12:47:35;8.95;;;5.05;;
30677;SDS011;17437;47.188;8.896;2023-02-23T12:50:10;11.15;;;7.40;;
30677;SDS011;17437;47.188;8.896;2023-02-23T12:52:46;22.37;;;8.40;;
30677;SDS011;17437;47.188;8.896;2023-02-23T12:55:20;11.78;;;7.20;;
30677;SDS011;17437;47.188;8.896;2023-02-23T12:58:02;9.20;;;5.17;;
30677;SDS011;17437;47.188;8.896;2023-02-23T13:00:50;12.90;;;5.33;;
30677;SDS011;17437;47.188;8.896;2023-02-23T13:03:38;11.57;;;5.42;;
30677;SDS011;17437;47.188;8.896;2023-02-23T13:06:26;9.58;;;6.15;;
30677;SDS011;17437;47.188;8.896;2023-02-23T13:09:11;9.48;;;6.35;;
30677;SDS011;17437;47.188;8.896;2023-02-23T13:11:53;13.72;;;5.92;;
30677;SDS011;17437;47.188;8.896;2023-02-23T13:14:36;9.15;;;4.80;;
30677;SDS011;17437;47.188;8.896;2023-02-23T13:17:15;7.12;;;5.05;;
30677;SDS011;17437;47.188;8.896;2023-02-23T13:19:54;10.25;;;5.50;;
30677;SDS011;17437;47.188;8.896;2023-02-23T13:22:28;8.88;;;6.45;;
30677;SDS011;17437;47.188;8.896;2023-02-23T13:25:09;14.03;;;6.72;;
30677;SDS011;17437;47.188;8.896;2023-02-23T13:27:45;8.95;;;5.92;;
30677;SDS011;17437;47.188;8.896;2023-02-23T13:30:18;9.35;;;6.85;;
30677;SDS011;17437;47.188;8.896;2023-02-23T13:32:50;10.90;;;5.78;;
30677;SDS011;17437;47.188;8.896;2023-02-23T13:35:23;10.23;;;6.28;;
30677;SDS011;17437;47.188;8.896;2023-02-23T13:37:58;9.48;;;5.70;;
30677;SDS011;17437;47.188;8.896;2023-02-23T13:40:33;9.23;;;5.28;;
30677;SDS011;17437;47.188;8.896;2023-02-23T13:43:07;11.28;;;5.05;;
30677;SDS011;17437;47.188;8.896;2023-02-23T13:45:49;9.63;;;5.10;;
30677;SDS011;17437;47.188;8.896;2023-02-23T13:48:30;19.15;;;5.35;;
30677;SDS011;17437;47.188;8.896;2023-02-23T13:51:17;10.82;;;4.92;;
30677;SDS011;17437;47.188;8.896;2023-02-23T13:54:00;14.93;;;6.15;;
30677;SDS011;17437;47.188;8.896;2023-02-23T13:56:40;19.02;;;8.53;;
30677;SDS011;17437;47.188;8.896;2023-02-23T13:59:15;16.93;;;4.05;;
30677;SDS011;17437;47.188;8.896;2023-02-23T14:01:49;12.80;;;4.15;;
30677;SDS011;17437;47.188;8.896;2023-02-23T14:04:23;10.98;;;3.72;;
30677;SDS011;17437;47.188;8.896;2023-02-23T14:06:58;9.63;;;4.22;;
30677;SDS011;17437;47.188;8.896;2023-02-23T14:09:31;12.25;;;3.83;;
30677;SDS011;17437;47.188;8.896;2023-02-23T14:12:13;11.97;;;4.58;;
30677;SDS011;17437;47.188;8.896;2023-02-23T14:14:53;13.32;;;3.90;;
30677;SDS011;17437;47.188;8.896;2023-02-23T14:20:37;19.02;;;8.33;;
30677;SDS011;17437;47.188;8.896;2023-02-23T14:23:37;12.58;;;4.33;;
30677;SDS011;17437;47.188;8.896;2023-02-23T14:26:38;16.05;;;5.87;;
30677;SDS011;17437;47.188;8.896;2023-02-23T14:29:25;11.22;;;4.83;;
30677;SDS011;17437;47.188;8.896;2023-02-23T14:32:01;15.93;;;5.90;;
30677;SDS011;17437;47.188;8.896;2023-02-23T14:34:42;13.43;;;4.35;;
30677;SDS011;17437;47.188;8.896;2023-02-23T14:37:17;9.30;;;3.90;;
30677;SDS011;17437;47.188;8.896;2023-02-23T14:39:54;7.67;;;4.83;;
30677;SDS011;17437;47.188;8.896;2023-02-23T14:42:28;13.03;;;5.67;;
30677;SDS011;17437;47.188;8.896;2023-02-23T14:45:02;12.73;;;6.17;;
30677;SDS011;17437;47.188;8.896;2023-02-23T14:47:40;10.60;;;6.17;;
30677;SDS011;17437;47.188;8.896;2023-02-23T14:50:16;12.98;;;5.75;;
30677;SDS011;17437;47.188;8.896;2023-02-23T14:52:49;13.15;;;5.30;;
30677;SDS011;17437;47.188;8.896;2023-02-23T14:55:23;10.38;;;4.92;;
30677;SDS011;17437;47.188;8.896;2023-02-23T14:57:57;15.05;;;7.10;;
30677;SDS011;17437;47.188;8.896;2023-02-23T15:00:31;15.60;;;5.55;;
30677;SDS011;17437;47.188;8.896;2023-02-23T15:03:07;10.35;;;4.15;;
30677;SDS011;17437;47.188;8.896;2023-02-23T15:05:42;8.60;;;3.83;;
30677;SDS011;17437;47.188;8.896;2023-02-23T15:08:16;8.53;;;3.95;;
30677;SDS011;17437;47.188;8.896;2023-02-23T15:10:51;9.88;;;5.72;;
30677;SDS011;17437;47.188;8.896;2023-02-23T15:13:29;7.67;;;4.92;;
30677;SDS011;17437;47.188;8.896;2023-02-23T15:16:04;11.65;;;5.08;;
30677;SDS011;17437;47.188;8.896;2023-02-23T15:18:37;8.73;;;4.80;;
30677;SDS011;17437;47.188;8.896;2023-02-23T15:21:11;10.98;;;3.65;;
30677;SDS011;17437;47.188;8.896;2023-02-23T15:23:47;13.88;;;5.10;;
30677;SDS011;17437;47.188;8.896;2023-02-23T15:26:24;10.63;;;4.30;;
30677;SDS011;17437;47.188;8.896;2023-02-23T15:29:03;6.55;;;3.12;;
30677;SDS011;17437;47.188;8.896;2023-02-23T15:31:37;21.48;;;5.90;;
30677;SDS011;17437;47.188;8.896;2023-02-23T15:34:11;8.90;;;3.42;;
30677;SDS011;17437;47.188;8.896;2023-02-23T15:36:42;7.30;;;2.92;;